Airfield :
LOGIN :

Register | Disclaimer

   EN    FR    IT 

 










Legend :    VFR   Marginal VFR   IFR   Intensive IFR   Very Intensive IFR
Visi :
Ceiling :
>= 8 km
>= 3000ft
5 to 8 km
1000 to 3000 ft
1500m to 5 km
500 to 1000 ft
800 to 1500m
200 to 500 ft
< 800m
< 200 ft
Symbols :   Thunderstorms  Fog  Heavy snow  Heavy precipitations  Wind > 20 kt
SIGMETs :     Misc.  Thunderstorms  Icing  Turbulence  Mountain Waves  Volcanic Ashes







- Airport Elevation : 614 ft
- IATA code : CRL


EBCI - Charleroi

CURRENT METAR :
  • 201620Z 15003KT 120V190 5000 -RADZ BR SCT004 BKN007 BKN025 02/01 Q0998 TEMPO 3000 -SNRA BR BKN004

EXPIRED METARs :
  • 201550Z VRB04KT 4000 -RA BR BKN004 BKN007 01/01 Q0997 TEMPO 3000 -SNRA BR BKN004
  • 201520Z 12005KT 100V160 5000 -RA BR SCT004 BKN009 01/01 Q0998 TEMPO 3000 -SNRA BR BKN004
  • 201450Z 10006KT 4000 -RA BR BKN004 BKN009 01/01 Q0998 TEMPO 3000 -SNRA BR BKN004
  • 201420Z 09004KT 070V150 4000 -RASN BR BKN005 BKN007 01/01 Q0998 TEMPO 3000 -SNRA BR BKN004
  • 201350Z 10003KT 4000 -SNRA BR BKN005 BKN007 01/01 Q0998 TEMPO 3000 -SNRA BR BKN004

TAF TAF EBCI
Valid from the 20 at 12:00 until the 21 at 18:00 UTC


201120Z 2012/2118 16005KT 7000 BKN010
TEMPO 2012/2101 3200 SNRA RADZ BKN005
PROB40
TEMPO 2014/2101 1800 RADZ BKN003
BECMG 2100/2102 SCT014
PROB30
TEMPO 2103/2109 3800 BR BKN005
BECMG 2114/2116 BKN006
PROB40
TEMPO 2115/2118 4000 SNRA BKN004
No reported NOTAMs for that airfield.
2 SIGMETs reported for the Brussels FIR (EBBU) :
 
Severe icing
EBBU SIGMET 04 VALID 201407/201700 EBBR
EBBU BRUSSELS FIR SEV ICE FCST E OF E004 FL025/100 MOV E WKN=
Severe turbulence
EBBU SIGMET 03 VALID 201400/201800 EBBR
EBBU BRUSSELS FIR SEV TURB FCST ENTIRE FIR FL180/310 MOV ENE NC=



MET'MAP, your aeronautical weather chart ! - Copyright ORBIFLY December 2007 - Disclaimer

ORBIFLY MET'MAP TEAM :

Programming & Development : Alexandra Zaïnal
Concept & Development : Baudouin d'Aumeries
Co-Development & Prog : Marc-Olivier Méhu
Technical & hardware support : Manuel Goepfert

Contact : metmap@orbifly.com




SOURCES & CREDITS :

   NOAA